EST,Max TemperatureF,Mean TemperatureF,Min TemperatureF,Max Dew PointF,MeanDew PointF,Min DewpointF,Max Humidity, Mean Humidity, Min Humidity, Max Sea Level PressureIn, Mean Sea Level PressureIn, Min Sea Level PressureIn, Max VisibilityMiles, Mean VisibilityMiles, Min VisibilityMiles, Max Wind SpeedMPH, Mean Wind SpeedMPH, Max Gust SpeedMPH,PrecipitationIn, CloudCover, Events, WindDirDegrees
2012-12-1,58,49,39,42,38,31,86,69,51,30.37,30.32,30.28,10,10,10,12,5,15,0.00,1,,191
2012-12-2,63,55,46,47,41,37,72,60,48,30.29,30.24,30.16,10,10,10,21,10,29,T,3,Rain,205
2012-12-3,66,60,53,51,48,47,83,70,56,30.31,30.24,30.19,10,10,10,13,7,16,T,5,Rain,217
2012-12-4,65,57,48,47,46,44,83,68,52,30.24,30.18,30.09,10,10,10,16,7,24,T,3,,216
2012-12-5,58,44,30,52,37,29,93,70,46,30.31,30.23,30.09,10,10,6,20,6,24,0.08,4,Rain,336
2012-12-6,50,39,27,40,32,26,92,73,53,30.26,30.18,30.11,10,10,5,16,7,25,0.02,5,Rain,141
2012-12-7,60,52,43,46,42,39,83,69,55,30.09,30.02,29.92,10,10,10,16,7,22,T,4,,176
2012-12-8,64,58,51,52,48,44,93,77,60,30.03,29.96,29.89,10,8,0,16,5,23,0.09,8,Fog-Rain,242
2012-12-9,62,57,51,54,51,48,96,84,72,30.09,30.00,29.86,10,9,2,15,5,20,0.24,7,Rain,161
2012-12-10,56,45,33,52,46,32,96,87,77,29.85,29.73,29.62,10,8,0,21,9,26,0.44,7,Fog-Rain-Snow,230
2012-12-11,35,31,26,32,28,21,96,86,75,30.27,29.99,29.82,10,6,0,12,5,14,0.03,8,Fog-Rain-Snow,321
2012-12-12,33,29,25,28,25,22,92,85,78,30.43,30.36,30.27,10,10,7,7,2,10,0.00,2,,23
2012-12-13,45,33,21,22,20,17,92,66,39,30.44,30.38,30.29,10,9,2,13,4,15,0.00,0,,135
2012-12-14,52,39,26,28,22,16,78,52,26,30.40,30.32,30.23,10,10,9,9,3,12,0.00,0,,218
2012-12-15,55,46,37,32,25,22,50,41,32,30.23,30.11,29.96,10,10,10,18,9,26,T,3,Rain,143
2012-12-16,56,50,43,49,43,30,89,69,49,29.99,29.90,29.75,10,10,5,16,7,22,0.03,7,Rain,179
2012-12-17,54,47,39,47,44,38,93,79,64,29.81,29.70,29.60,10,9,2,26,5,36,0.46,6,Rain,193
2012-12-18,44,39,34,41,36,29,96,83,70,29.93,29.76,29.61,10,10,4,22,10,29,0.16,7,Rain,271
2012-12-19,52,43,34,36,32,28,82,65,48,30.14,30.04,29.90,10,10,10,14,6,18,0.00,2,,241
2012-12-20,45,40,35,40,34,30,92,77,62,30.07,29.71,29.47,10,9,5,29,15,41,0.42,6,Rain,170
2012-12-21,35,29,22,30,20,18,92,80,68,29.95,29.68,29.51,10,2,0,30,18,40,0.10,8,Fog-Rain-Snow,284
2012-12-22,29,24,19,20,18,15,88,76,63,30.24,30.06,29.83,10,6,1,26,11,35,0.01,6,Snow,294
2012-12-23,43,31,19,27,19,13,77,60,43,30.17,30.09,30.01,10,10,10,17,8,23,0.00,0,,235
2012-12-24,45,39,32,43,38,27,96,83,70,30.01,29.88,29.78,10,8,3,16,6,22,0.17,8,Rain,188
2012-12-25,45,41,36,39,36,33,100,83,65,30.10,30.01,29.92,10,7,0,16,4,23,0.00,7,Fog,359
2012-12-26,41,36,31,36,31,28,96,88,79,29.99,29.63,29.44,10,6,1,36,18,52,0.61,8,Rain-Snow,147
2012-12-27,31,27,23,27,22,19,92,87,81,30.19,29.96,29.66,10,8,2,28,13,43,T,8,Rain-Snow,303
2012-12-28,35,30,24,28,24,21,88,80,72,30.18,30.08,29.86,10,10,9,12,5,17,0.02,7,Rain-Snow,105
2012-12-29,34,30,26,31,27,21,92,85,78,30.06,29.78,29.63,10,4,1,23,12,32,0.21,8,Rain-Snow,267
2012-12-30,26,21,15,23,18,14,88,78,68,30.48,30.24,29.98,10,5,0,18,8,25,0.10,7,Fog-Snow,288
2012-12-31,36,26,15,21,16,12,92,65,38,30.44,30.28,30.09,10,10,10,14,7,18,0.00,4,,220